Flight Track Log - Related Links

Times and Time Zones

All times are in EDT time to prevent confusion due to time zone crossing. See the ASQ4443 flight status page for this flight to view local times or setup timezone preferences in your user account.

Time Position Orientation Groundspeed Altitude Reporting Facility
EDT Latitude Longitude Course Direction KTS MPH feet Rate Location/Type
Thu 09:44:09 PM 40.6500 -74.1833 40° Northeast 182 209 1,900  Level New York TRACON
Thu 09:45:09 PM 40.6333 -74.2500 252° West 241 277 4,300 2,650 Climbing New York TRACON
Thu 09:46:09 PM 40.6833 -74.2000 37° Northeast 235 270 7,200 2,650 Climbing New York TRACON
Thu 09:47:09 PM 40.7000 -74.1333 72° East 218 251 9,600 1,400 Climbing New York TRACON
Thu 09:48:09 PM 40.7333 -74.0500 62° Northeast 272 313 10,000 862 Climbing New York TRACON
Thu 09:49:00 PM 41.0557 -73.7541 40° Northeast  Level FlightAware Approximate
Thu 09:49:56 PM 40.8294 -73.9350 42° Northeast 288 331 12,000  Level Boston Center
Thu 09:50:56 PM 40.9056 -73.8625 36° Northeast 309 356 12,600 900 Climbing Boston Center
Thu 09:51:56 PM 40.9836 -73.7900 35° Northeast 330 380 13,800 1,200 Climbing Boston Center
Thu 09:52:56 PM 41.0614 -73.7147 36° Northeast 344 396 15,000 1,150 Climbing Boston Center
Thu 09:53:56 PM 41.1500 -73.6308 35° Northeast 349 402 16,100 1,000 Climbing Boston Center
Thu 09:55:08 PM 41.2319 -73.5497 37° Northeast 362 417 17,200 818 Climbing Boston Center
Thu 09:56:08 PM 41.3225 -73.4656 35° Northeast 362 417 17,900 900 Climbing Boston Center
Thu 09:57:08 PM 41.4128 -73.3756 37° Northeast 362 417 19,000 1,000 Climbing Boston Center
Thu 09:58:08 PM 41.4883 -73.3047 35° Northeast 362 417 19,900 955 Climbing Boston Center
Thu 09:59:20 PM 41.5950 -73.2756 12° North 353 406 21,100 1,091 Climbing Boston Center
Thu 10:00:20 PM 41.7200 -73.2828 358° North 353 406 22,300 1,000 Climbing Boston Center
Thu 10:01:20 PM 41.8261 -73.2869 358° North 365 420 23,100 800 Climbing Boston Center
Thu 10:02:20 PM 41.9325 -73.2911 358° North 370 426 23,900 800 Climbing Boston Center
Thu 10:03:20 PM 42.0386 -73.2983 357° North 375 432 24,700 800 Climbing Boston Center
Thu 10:04:20 PM 42.1428 -73.3025 358° North 375 432 25,500 800 Climbing Boston Center
Thu 10:05:20 PM 42.2492 -73.2956 North 375 432 26,300 650 Climbing Boston Center
Thu 10:06:20 PM 42.3433 -73.2492 20° North 407 468 26,800 300 Climbing Boston Center
Thu 10:07:20 PM 42.4458 -73.2083 16° North 402 463 26,900 100 Climbing Boston Center
Thu 10:08:20 PM 42.5544 -73.1644 17° North 397 457 27,000 50 Climbing Boston Center
Thu 10:09:20 PM 42.6631 -73.1319 12° North 397 457 27,000  Level Boston Center
Thu 10:10:20 PM 42.7736 -73.0906 15° North 397 457 27,000  Level Boston Center
Thu 10:11:20 PM 42.8822 -73.0464 17° North 397 457 27,000  Level Boston Center
Thu 10:12:20 PM 42.9992 -72.9964 17° North 397 457 27,000  Level Boston Center
Thu 10:13:20 PM 43.1078 -72.9547 16° North 392 451 27,000  Level Boston Center
Thu 10:14:20 PM 43.2100 -72.9186 14° North 402 463 27,000  Level Boston Center
Thu 10:15:20 PM 43.3186 -72.8739 17° North 402 463 27,000  Level Boston Center
Thu 10:16:20 PM 43.4292 -72.8289 16° North 402 463 27,000  Level Boston Center
Thu 10:17:20 PM 43.5378 -72.7867 16° North 402 463 27,000  Level Boston Center
Thu 10:18:20 PM 43.6503 -72.7414 16° North 402 463 27,000  Level Boston Center
Thu 10:19:20 PM 43.7569 -72.6931 18° North 402 463 27,000  Level Boston Center
Thu 10:20:20 PM 43.8778 -72.6444 16° North 413 475 27,000  Level Boston Center
Thu 10:21:20 PM 43.9883 -72.5989 17° North 413 475 27,000  Level Boston Center
Thu 10:22:20 PM 44.0989 -72.5558 16° North 407 468 27,000  Level Boston Center
Thu 10:23:20 PM 44.2092 -72.5097 17° North 402 463 27,000  Level Boston Center
Thu 10:24:20 PM 44.3175 -72.4633 17° North 402 463 27,000  Level Boston Center
Thu 10:25:20 PM 44.4300 -72.4197 15° North 402 463 27,000  Level Boston Center
Thu 10:26:20 PM 44.5406 -72.3731 17° North 407 468 27,000  Level Boston Center
Thu 10:27:20 PM 44.6406 -72.3322 16° North 412 474 27,000  Level Boston Center
Thu 10:28:20 PM 44.7528 -72.2881 16° North 412 474 27,000  Level Boston Center
Thu 10:29:20 PM 44.8403 -72.2469 18° North 412 474 27,000  Level Boston Center
Thu 10:30:20 PM 44.9736 -72.1936 16° North 417 480 27,000  Level Boston Center
Thu 10:32:03 PM 45.1667 -72.1000 19° North 420 483 27,000  Level Montreal Center
Thu 10:33:03 PM 45.2667 -72.0333 25° Northeast 420 483 27,000  Level Montreal Center
Thu 10:34:03 PM 45.3833 -71.9833 17° North 420 483 27,000 -100 Level Montreal Center
Thu 10:35:03 PM 45.5000 -71.9500 11° North 420 483 26,800 -1,450 Descending Montreal Center
Thu 10:36:03 PM 45.6000 -71.9000 19° North 400 460 24,100 -2,650 Descending Montreal Center
Thu 10:37:03 PM 45.7167 -71.8667 11° North 400 460 21,500 -2,800 Descending Montreal Center
Thu 10:38:03 PM 45.8167 -71.8000 25° Northeast 390 449 18,500 -2,950 Descending Montreal Center
Thu 10:39:03 PM 45.9167 -71.7667 13° North 370 426 15,600 -2,450 Descending Montreal Center
Thu 10:40:03 PM 46.0000 -71.7167 23° Northeast 360 414 13,600 -1,450 Descending Montreal Center
Thu 10:41:03 PM 46.1000 -71.6833 13° North 360 414 12,700 -600 Descending Montreal Center
Thu 10:42:03 PM 46.1833 -71.6833 360° North 300 345 12,400 -950 Descending Montreal Center
Thu 10:43:03 PM 46.2500 -71.6500 19° North 260 299 10,800 -1,400 Descending Montreal Center
Thu 10:44:03 PM 46.3167 -71.6500 360° North 250 288 9,600 -1,050 Descending Montreal Center
Thu 10:45:03 PM 46.3833 -71.6333 10° North 250 288 8,700 -1,100 Descending Montreal Center
Thu 10:46:03 PM 46.4500 -71.6167 10° North 240 276 7,400 -1,300 Descending Montreal Center
Thu 10:49:00 PM 46.5759 -71.3917 38° Northeast  Level FlightAware Approximate
Thu 10:56:00 PM 46.7833 -71.3833 250° West  Level FlightAware Approximate
Thu 10:57:00 PM 46.7911 -71.3933 250° West  Level Estimated
Thu 10:58:00 PM 46.7911 -71.3933 250° West  Level Estimated
Thu 10:59:00 PM 46.7911 -71.3933 250° West  Level Estimated

Login

Don't have an account? Register now (free) for customized features, flight alerts, and more!